sensor_id;sensor_type;location;lat;lon;timestamp;P1;durP1;ratioP1;P2;durP2;ratioP2
43700;SDS011;58809;47.984;7.964;2022-07-18T00:00:29;5.35;;;4.75;;
43700;SDS011;58809;47.984;7.964;2022-07-18T00:03:31;5.57;;;4.75;;
43700;SDS011;58809;47.984;7.964;2022-07-18T00:06:33;5.72;;;4.70;;
43700;SDS011;58809;47.984;7.964;2022-07-18T00:09:34;5.82;;;4.38;;
43700;SDS011;58809;47.984;7.964;2022-07-18T00:12:36;5.47;;;4.60;;
43700;SDS011;58809;47.984;7.964;2022-07-18T00:15:38;4.90;;;4.38;;
43700;SDS011;58809;47.984;7.964;2022-07-18T00:18:39;5.93;;;5.10;;
43700;SDS011;58809;47.984;7.964;2022-07-18T00:21:41;6.78;;;4.70;;
43700;SDS011;58809;47.984;7.964;2022-07-18T00:24:43;7.45;;;4.78;;
43700;SDS011;58809;47.984;7.964;2022-07-18T00:27:44;4.55;;;4.15;;
43700;SDS011;58809;47.984;7.964;2022-07-18T00:30:46;5.03;;;4.28;;
43700;SDS011;58809;47.984;7.964;2022-07-18T00:33:48;6.22;;;4.55;;
43700;SDS011;58809;47.984;7.964;2022-07-18T00:36:49;5.80;;;4.20;;
43700;SDS011;58809;47.984;7.964;2022-07-18T00:39:51;6.05;;;4.78;;
43700;SDS011;58809;47.984;7.964;2022-07-18T00:42:53;5.25;;;4.50;;
43700;SDS011;58809;47.984;7.964;2022-07-18T00:45:54;5.07;;;4.18;;
43700;SDS011;58809;47.984;7.964;2022-07-18T00:48:56;5.15;;;4.32;;
43700;SDS011;58809;47.984;7.964;2022-07-18T00:51:58;5.63;;;4.70;;
43700;SDS011;58809;47.984;7.964;2022-07-18T00:54:59;6.22;;;4.70;;
43700;SDS011;58809;47.984;7.964;2022-07-18T00:58:01;11.57;;;5.00;;
43700;SDS011;58809;47.984;7.964;2022-07-18T01:01:03;5.20;;;4.43;;
43700;SDS011;58809;47.984;7.964;2022-07-18T01:04:23;5.35;;;4.85;;
43700;SDS011;58809;47.984;7.964;2022-07-18T01:07:25;5.00;;;4.50;;
43700;SDS011;58809;47.984;7.964;2022-07-18T01:10:26;5.22;;;4.70;;
43700;SDS011;58809;47.984;7.964;2022-07-18T01:13:28;5.45;;;4.75;;
43700;SDS011;58809;47.984;7.964;2022-07-18T01:16:30;6.07;;;5.05;;
43700;SDS011;58809;47.984;7.964;2022-07-18T01:19:32;5.72;;;4.53;;
43700;SDS011;58809;47.984;7.964;2022-07-18T01:22:33;6.05;;;5.15;;
43700;SDS011;58809;47.984;7.964;2022-07-18T01:25:35;5.68;;;4.43;;
43700;SDS011;58809;47.984;7.964;2022-07-18T01:28:37;6.18;;;5.10;;
43700;SDS011;58809;47.984;7.964;2022-07-18T01:31:38;5.75;;;4.68;;
43700;SDS011;58809;47.984;7.964;2022-07-18T01:34:40;5.97;;;4.70;;
43700;SDS011;58809;47.984;7.964;2022-07-18T01:37:42;5.63;;;5.03;;
43700;SDS011;58809;47.984;7.964;2022-07-18T01:40:44;5.78;;;4.72;;
43700;SDS011;58809;47.984;7.964;2022-07-18T01:43:46;5.30;;;4.30;;
43700;SDS011;58809;47.984;7.964;2022-07-18T01:46:47;4.97;;;4.47;;
43700;SDS011;58809;47.984;7.964;2022-07-18T01:49:49;5.45;;;4.95;;
43700;SDS011;58809;47.984;7.964;2022-07-18T01:52:50;5.68;;;4.50;;
43700;SDS011;58809;47.984;7.964;2022-07-18T01:55:52;6.30;;;5.05;;
43700;SDS011;58809;47.984;7.964;2022-07-18T01:58:54;4.88;;;4.32;;
43700;SDS011;58809;47.984;7.964;2022-07-18T02:01:55;5.35;;;4.80;;
43700;SDS011;58809;47.984;7.964;2022-07-18T02:04:57;7.30;;;4.82;;
43700;SDS011;58809;47.984;7.964;2022-07-18T02:08:02;4.75;;;4.32;;
43700;SDS011;58809;47.984;7.964;2022-07-18T02:11:03;6.20;;;5.00;;
43700;SDS011;58809;47.984;7.964;2022-07-18T02:14:05;4.90;;;3.97;;
43700;SDS011;58809;47.984;7.964;2022-07-18T02:17:07;7.57;;;4.95;;
43700;SDS011;58809;47.984;7.964;2022-07-18T02:20:09;5.78;;;4.35;;
43700;SDS011;58809;47.984;7.964;2022-07-18T02:23:12;5.07;;;4.57;;
43700;SDS011;58809;47.984;7.964;2022-07-18T02:26:13;6.88;;;5.00;;
43700;SDS011;58809;47.984;7.964;2022-07-18T02:29:15;5.10;;;4.60;;
43700;SDS011;58809;47.984;7.964;2022-07-18T02:32:17;5.22;;;4.30;;
43700;SDS011;58809;47.984;7.964;2022-07-18T02:35:19;5.82;;;4.85;;
43700;SDS011;58809;47.984;7.964;2022-07-18T02:38:20;6.82;;;4.82;;
43700;SDS011;58809;47.984;7.964;2022-07-18T02:41:27;7.53;;;4.88;;
43700;SDS011;58809;47.984;7.964;2022-07-18T02:44:30;5.20;;;4.60;;
43700;SDS011;58809;47.984;7.964;2022-07-18T02:47:32;5.10;;;4.60;;
43700;SDS011;58809;47.984;7.964;2022-07-18T02:50:34;4.90;;;4.40;;
43700;SDS011;58809;47.984;7.964;2022-07-18T02:53:36;6.05;;;4.95;;
43700;SDS011;58809;47.984;7.964;2022-07-18T02:56:37;5.07;;;4.57;;
43700;SDS011;58809;47.984;7.964;2022-07-18T02:59:39;5.55;;;5.00;;
43700;SDS011;58809;47.984;7.964;2022-07-18T03:02:41;5.82;;;4.60;;
43700;SDS011;58809;47.984;7.964;2022-07-18T03:05:44;5.68;;;4.65;;
43700;SDS011;58809;47.984;7.964;2022-07-18T03:08:45;5.78;;;4.68;;
43700;SDS011;58809;47.984;7.964;2022-07-18T03:11:47;6.47;;;4.55;;
43700;SDS011;58809;47.984;7.964;2022-07-18T03:14:49;5.57;;;4.97;;
43700;SDS011;58809;47.984;7.964;2022-07-18T03:17:51;6.75;;;5.10;;
43700;SDS011;58809;47.984;7.964;2022-07-18T03:20:52;5.90;;;5.05;;
43700;SDS011;58809;47.984;7.964;2022-07-18T03:23:54;6.63;;;5.72;;
43700;SDS011;58809;47.984;7.964;2022-07-18T03:26:56;7.22;;;5.10;;
43700;SDS011;58809;47.984;7.964;2022-07-18T03:29:58;5.93;;;5.07;;
43700;SDS011;58809;47.984;7.964;2022-07-18T03:32:59;5.32;;;4.80;;
43700;SDS011;58809;47.984;7.964;2022-07-18T03:36:06;6.28;;;5.10;;
43700;SDS011;58809;47.984;7.964;2022-07-18T03:39:08;6.30;;;5.20;;
43700;SDS011;58809;47.984;7.964;2022-07-18T03:42:11;6.73;;;5.30;;
43700;SDS011;58809;47.984;7.964;2022-07-18T03:45:12;8.05;;;4.70;;
43700;SDS011;58809;47.984;7.964;2022-07-18T03:48:14;5.90;;;4.50;;
43700;SDS011;58809;47.984;7.964;2022-07-18T03:51:16;6.00;;;4.70;;
43700;SDS011;58809;47.984;7.964;2022-07-18T03:54:17;5.70;;;4.70;;
43700;SDS011;58809;47.984;7.964;2022-07-18T03:57:19;4.88;;;4.35;;
43700;SDS011;58809;47.984;7.964;2022-07-18T04:00:20;5.88;;;4.63;;
43700;SDS011;58809;47.984;7.964;2022-07-18T04:03:22;11.27;;;4.88;;
43700;SDS011;58809;47.984;7.964;2022-07-18T04:06:23;8.68;;;4.60;;
43700;SDS011;58809;47.984;7.964;2022-07-18T04:09:26;6.60;;;5.05;;
43700;SDS011;58809;47.984;7.964;2022-07-18T04:12:28;9.35;;;5.13;;
43700;SDS011;58809;47.984;7.964;2022-07-18T04:15:29;10.93;;;5.00;;
43700;SDS011;58809;47.984;7.964;2022-07-18T04:18:31;5.75;;;5.00;;
43700;SDS011;58809;47.984;7.964;2022-07-18T04:21:37;7.93;;;4.97;;
43700;SDS011;58809;47.984;7.964;2022-07-18T04:24:39;6.97;;;4.93;;
43700;SDS011;58809;47.984;7.964;2022-07-18T04:27:41;6.68;;;4.30;;
43700;SDS011;58809;47.984;7.964;2022-07-18T04:30:43;6.30;;;4.82;;
43700;SDS011;58809;47.984;7.964;2022-07-18T04:33:45;7.93;;;4.22;;
43700;SDS011;58809;47.984;7.964;2022-07-18T04:36:47;6.18;;;4.65;;
43700;SDS011;58809;47.984;7.964;2022-07-18T04:39:48;7.10;;;4.65;;
43700;SDS011;58809;47.984;7.964;2022-07-18T04:42:50;5.90;;;4.32;;
43700;SDS011;58809;47.984;7.964;2022-07-18T04:45:51;7.10;;;4.55;;
43700;SDS011;58809;47.984;7.964;2022-07-18T04:48:53;6.00;;;4.22;;
43700;SDS011;58809;47.984;7.964;2022-07-18T04:51:54;6.55;;;4.88;;
43700;SDS011;58809;47.984;7.964;2022-07-18T04:54:56;6.47;;;4.53;;
43700;SDS011;58809;47.984;7.964;2022-07-18T04:57:58;5.45;;;4.30;;
43700;SDS011;58809;47.984;7.964;2022-07-18T05:00:59;6.15;;;4.80;;
43700;SDS011;58809;47.984;7.964;2022-07-18T05:04:01;6.95;;;4.40;;
43700;SDS011;58809;47.984;7.964;2022-07-18T05:07:03;6.82;;;4.97;;
43700;SDS011;58809;47.984;7.964;2022-07-18T05:10:06;6.30;;;4.18;;
43700;SDS011;58809;47.984;7.964;2022-07-18T05:13:08;5.30;;;4.68;;
43700;SDS011;58809;47.984;7.964;2022-07-18T05:16:10;5.32;;;4.18;;
43700;SDS011;58809;47.984;7.964;2022-07-18T05:19:12;6.20;;;5.00;;
43700;SDS011;58809;47.984;7.964;2022-07-18T05:22:13;8.88;;;4.80;;
43700;SDS011;58809;47.984;7.964;2022-07-18T05:25:15;5.68;;;4.55;;
43700;SDS011;58809;47.984;7.964;2022-07-18T05:28:16;6.50;;;4.82;;
43700;SDS011;58809;47.984;7.964;2022-07-18T05:31:18;6.25;;;4.95;;
43700;SDS011;58809;47.984;7.964;2022-07-18T05:34:20;9.77;;;5.07;;
43700;SDS011;58809;47.984;7.964;2022-07-18T05:37:22;10.48;;;5.07;;
43700;SDS011;58809;47.984;7.964;2022-07-18T05:40:23;7.97;;;5.28;;
43700;SDS011;58809;47.984;7.964;2022-07-18T05:43:25;6.97;;;4.65;;
43700;SDS011;58809;47.984;7.964;2022-07-18T05:46:26;6.47;;;4.57;;
43700;SDS011;58809;47.984;7.964;2022-07-18T05:49:28;5.88;;;4.43;;
43700;SDS011;58809;47.984;7.964;2022-07-18T05:52:30;8.15;;;4.97;;
43700;SDS011;58809;47.984;7.964;2022-07-18T05:55:31;6.07;;;4.30;;
43700;SDS011;58809;47.984;7.964;2022-07-18T05:58:33;7.00;;;4.60;;
43700;SDS011;58809;47.984;7.964;2022-07-18T06:01:34;7.18;;;4.88;;
43700;SDS011;58809;47.984;7.964;2022-07-18T06:04:36;5.80;;;4.32;;
43700;SDS011;58809;47.984;7.964;2022-07-18T06:07:56;6.22;;;4.97;;
43700;SDS011;58809;47.984;7.964;2022-07-18T06:10:58;8.35;;;4.45;;
43700;SDS011;58809;47.984;7.964;2022-07-18T06:14:00;8.10;;;4.05;;
43700;SDS011;58809;47.984;7.964;2022-07-18T06:17:07;5.25;;;4.68;;
43700;SDS011;58809;47.984;7.964;2022-07-18T06:20:09;5.07;;;4.57;;
43700;SDS011;58809;47.984;7.964;2022-07-18T06:23:11;4.72;;;4.15;;
43700;SDS011;58809;47.984;7.964;2022-07-18T06:26:12;6.22;;;4.05;;
43700;SDS011;58809;47.984;7.964;2022-07-18T06:29:14;6.65;;;3.90;;
43700;SDS011;58809;47.984;7.964;2022-07-18T06:32:16;4.88;;;4.35;;
43700;SDS011;58809;47.984;7.964;2022-07-18T06:35:18;4.40;;;3.95;;
43700;SDS011;58809;47.984;7.964;2022-07-18T06:38:19;4.18;;;3.78;;
43700;SDS011;58809;47.984;7.964;2022-07-18T06:41:21;5.95;;;4.18;;
43700;SDS011;58809;47.984;7.964;2022-07-18T06:44:23;4.75;;;4.25;;
43700;SDS011;58809;47.984;7.964;2022-07-18T06:47:24;5.80;;;4.35;;
43700;SDS011;58809;47.984;7.964;2022-07-18T06:50:26;6.20;;;4.63;;
43700;SDS011;58809;47.984;7.964;2022-07-18T06:53:28;6.30;;;4.50;;
43700;SDS011;58809;47.984;7.964;2022-07-18T06:56:29;5.90;;;4.63;;
43700;SDS011;58809;47.984;7.964;2022-07-18T06:59:31;6.10;;;4.50;;
43700;SDS011;58809;47.984;7.964;2022-07-18T07:02:33;4.90;;;4.40;;
43700;SDS011;58809;47.984;7.964;2022-07-18T07:05:34;6.63;;;4.78;;
43700;SDS011;58809;47.984;7.964;2022-07-18T07:08:36;5.03;;;4.53;;
43700;SDS011;58809;47.984;7.964;2022-07-18T07:11:38;6.43;;;4.50;;
43700;SDS011;58809;47.984;7.964;2022-07-18T07:14:39;6.45;;;4.65;;
43700;SDS011;58809;47.984;7.964;2022-07-18T07:17:41;4.70;;;4.22;;
43700;SDS011;58809;47.984;7.964;2022-07-18T07:20:43;5.47;;;4.50;;
43700;SDS011;58809;47.984;7.964;2022-07-18T07:23:44;6.93;;;4.35;;
43700;SDS011;58809;47.984;7.964;2022-07-18T07:26:46;4.75;;;4.25;;
43700;SDS011;58809;47.984;7.964;2022-07-18T07:29:52;6.93;;;4.28;;
43700;SDS011;58809;47.984;7.964;2022-07-18T07:32:53;6.53;;;4.25;;
43700;SDS011;58809;47.984;7.964;2022-07-18T07:35:55;5.50;;;4.40;;
43700;SDS011;58809;47.984;7.964;2022-07-18T07:38:57;7.45;;;4.45;;
43700;SDS011;58809;47.984;7.964;2022-07-18T07:41:58;6.50;;;4.15;;
43700;SDS011;58809;47.984;7.964;2022-07-18T07:45:05;6.32;;;4.25;;
43700;SDS011;58809;47.984;7.964;2022-07-18T07:48:07;9.23;;;4.95;;
43700;SDS011;58809;47.984;7.964;2022-07-18T07:51:09;6.65;;;4.43;;
43700;SDS011;58809;47.984;7.964;2022-07-18T07:54:11;5.85;;;4.22;;
43700;SDS011;58809;47.984;7.964;2022-07-18T07:57:12;5.40;;;3.97;;
43700;SDS011;58809;47.984;7.964;2022-07-18T08:00:14;5.40;;;4.50;;
43700;SDS011;58809;47.984;7.964;2022-07-18T08:03:16;6.10;;;4.40;;
43700;SDS011;58809;47.984;7.964;2022-07-18T08:06:18;7.45;;;4.38;;
43700;SDS011;58809;47.984;7.964;2022-07-18T08:09:19;6.40;;;4.63;;
43700;SDS011;58809;47.984;7.964;2022-07-18T08:12:21;7.20;;;4.40;;
43700;SDS011;58809;47.984;7.964;2022-07-18T08:15:23;6.85;;;4.57;;
43700;SDS011;58809;47.984;7.964;2022-07-18T08:18:26;6.13;;;4.37;;
43700;SDS011;58809;47.984;7.964;2022-07-18T08:21:27;6.00;;;4.93;;
43700;SDS011;58809;47.984;7.964;2022-07-18T08:24:29;7.82;;;4.70;;
43700;SDS011;58809;47.984;7.964;2022-07-18T08:27:31;4.95;;;3.90;;
43700;SDS011;58809;47.984;7.964;2022-07-18T08:30:33;5.28;;;4.43;;
43700;SDS011;58809;47.984;7.964;2022-07-18T08:33:35;6.85;;;4.97;;
43700;SDS011;58809;47.984;7.964;2022-07-18T08:36:36;6.40;;;4.45;;
43700;SDS011;58809;47.984;7.964;2022-07-18T08:39:40;7.90;;;5.03;;
43700;SDS011;58809;47.984;7.964;2022-07-18T08:42:41;7.60;;;5.10;;
43700;SDS011;58809;47.984;7.964;2022-07-18T08:46:04;5.97;;;4.40;;
43700;SDS011;58809;47.984;7.964;2022-07-18T08:49:07;5.65;;;4.25;;
43700;SDS011;58809;47.984;7.964;2022-07-18T08:52:08;6.40;;;4.53;;
43700;SDS011;58809;47.984;7.964;2022-07-18T08:55:24;8.10;;;4.50;;
43700;SDS011;58809;47.984;7.964;2022-07-18T08:58:27;5.50;;;4.40;;
43700;SDS011;58809;47.984;7.964;2022-07-18T09:01:46;7.53;;;4.00;;
43700;SDS011;58809;47.984;7.964;2022-07-18T09:04:48;5.38;;;4.40;;
43700;SDS011;58809;47.984;7.964;2022-07-18T09:11:21;6.80;;;4.57;;
43700;SDS011;58809;47.984;7.964;2022-07-18T09:14:43;8.68;;;5.05;;
43700;SDS011;58809;47.984;7.964;2022-07-18T09:17:46;8.20;;;4.63;;
43700;SDS011;58809;47.984;7.964;2022-07-18T09:24:09;9.35;;;4.70;;
43700;SDS011;58809;47.984;7.964;2022-07-18T09:27:24;6.30;;;4.72;;
43700;SDS011;58809;47.984;7.964;2022-07-18T09:30:46;9.95;;;4.97;;
43700;SDS011;58809;47.984;7.964;2022-07-18T09:33:51;7.45;;;5.05;;
43700;SDS011;58809;47.984;7.964;2022-07-18T09:36:54;6.78;;;4.50;;
43700;SDS011;58809;47.984;7.964;2022-07-18T09:40:13;5.65;;;4.28;;
43700;SDS011;58809;47.984;7.964;2022-07-18T09:43:21;5.07;;;4.57;;
43700;SDS011;58809;47.984;7.964;2022-07-18T09:46:25;6.78;;;4.68;;
43700;SDS011;58809;47.984;7.964;2022-07-18T09:49:30;7.55;;;5.03;;
43700;SDS011;58809;47.984;7.964;2022-07-18T09:52:32;7.95;;;5.00;;
43700;SDS011;58809;47.984;7.964;2022-07-18T09:55:34;8.80;;;4.80;;
43700;SDS011;58809;47.984;7.964;2022-07-18T09:58:37;7.15;;;5.15;;
43700;SDS011;58809;47.984;7.964;2022-07-18T10:04:42;6.72;;;4.47;;
43700;SDS011;58809;47.984;7.964;2022-07-18T10:07:44;9.00;;;4.82;;
43700;SDS011;58809;47.984;7.964;2022-07-18T10:10:47;6.70;;;4.40;;
43700;SDS011;58809;47.984;7.964;2022-07-18T10:13:50;5.32;;;4.50;;
43700;SDS011;58809;47.984;7.964;2022-07-18T10:16:53;5.72;;;4.90;;
43700;SDS011;58809;47.984;7.964;2022-07-18T10:19:55;5.88;;;4.22;;
43700;SDS011;58809;47.984;7.964;2022-07-18T10:23:10;6.32;;;4.82;;
43700;SDS011;58809;47.984;7.964;2022-07-18T10:26:20;4.82;;;4.32;;
43700;SDS011;58809;47.984;7.964;2022-07-18T10:29:23;5.18;;;4.18;;
43700;SDS011;58809;47.984;7.964;2022-07-18T10:32:32;6.18;;;4.85;;
43700;SDS011;58809;47.984;7.964;2022-07-18T10:45:28;4.88;;;3.90;;
43700;SDS011;58809;47.984;7.964;2022-07-18T10:48:47;7.05;;;4.10;;
43700;SDS011;58809;47.984;7.964;2022-07-18T10:58:17;4.68;;;4.05;;
43700;SDS011;58809;47.984;7.964;2022-07-18T11:01:20;4.95;;;4.43;;
43700;SDS011;58809;47.984;7.964;2022-07-18T11:04:25;5.78;;;5.05;;
43700;SDS011;58809;47.984;7.964;2022-07-18T11:07:34;6.20;;;4.65;;
43700;SDS011;58809;47.984;7.964;2022-07-18T11:13:44;6.30;;;4.47;;
43700;SDS011;58809;47.984;7.964;2022-07-18T11:17:04;5.10;;;4.60;;
43700;SDS011;58809;47.984;7.964;2022-07-18T11:20:25;6.75;;;4.50;;
43700;SDS011;58809;47.984;7.964;2022-07-18T11:23:28;7.43;;;4.45;;
43700;SDS011;58809;47.984;7.964;2022-07-18T11:26:38;6.00;;;4.57;;
43700;SDS011;58809;47.984;7.964;2022-07-18T11:29:45;4.97;;;4.40;;
43700;SDS011;58809;47.984;7.964;2022-07-18T11:35:50;6.03;;;4.30;;
43700;SDS011;58809;47.984;7.964;2022-07-18T11:38:54;5.50;;;4.45;;
43700;SDS011;58809;47.984;7.964;2022-07-18T11:42:00;4.82;;;4.32;;
43700;SDS011;58809;47.984;7.964;2022-07-18T11:45:03;5.32;;;4.22;;
43700;SDS011;58809;47.984;7.964;2022-07-18T11:48:06;5.95;;;4.60;;
43700;SDS011;58809;47.984;7.964;2022-07-18T11:51:08;6.13;;;4.35;;
43700;SDS011;58809;47.984;7.964;2022-07-18T11:54:14;5.47;;;4.43;;
43700;SDS011;58809;47.984;7.964;2022-07-18T11:57:28;6.10;;;4.30;;
43700;SDS011;58809;47.984;7.964;2022-07-18T12:00:30;6.78;;;4.65;;
43700;SDS011;58809;47.984;7.964;2022-07-18T12:03:33;7.20;;;4.53;;
43700;SDS011;58809;47.984;7.964;2022-07-18T12:06:36;5.22;;;4.15;;
43700;SDS011;58809;47.984;7.964;2022-07-18T12:09:37;7.95;;;4.40;;
43700;SDS011;58809;47.984;7.964;2022-07-18T12:12:39;5.32;;;4.13;;
43700;SDS011;58809;47.984;7.964;2022-07-18T12:15:42;6.97;;;4.40;;
43700;SDS011;58809;47.984;7.964;2022-07-18T12:18:48;8.18;;;4.40;;
43700;SDS011;58809;47.984;7.964;2022-07-18T12:22:08;4.65;;;4.25;;
43700;SDS011;58809;47.984;7.964;2022-07-18T12:25:11;6.45;;;4.50;;
43700;SDS011;58809;47.984;7.964;2022-07-18T12:28:16;6.15;;;4.68;;
43700;SDS011;58809;47.984;7.964;2022-07-18T12:31:38;4.75;;;4.07;;
43700;SDS011;58809;47.984;7.964;2022-07-18T12:34:53;5.40;;;4.60;;
43700;SDS011;58809;47.984;7.964;2022-07-18T12:41:06;5.75;;;4.57;;
43700;SDS011;58809;47.984;7.964;2022-07-18T12:44:12;4.78;;;4.05;;
43700;SDS011;58809;47.984;7.964;2022-07-18T12:47:15;6.55;;;4.40;;
43700;SDS011;58809;47.984;7.964;2022-07-18T12:50:16;4.47;;;3.83;;
43700;SDS011;58809;47.984;7.964;2022-07-18T12:53:18;6.32;;;4.72;;
43700;SDS011;58809;47.984;7.964;2022-07-18T12:56:19;4.95;;;4.10;;
43700;SDS011;58809;47.984;7.964;2022-07-18T12:59:21;4.93;;;4.20;;
43700;SDS011;58809;47.984;7.964;2022-07-18T13:02:22;5.03;;;4.53;;
43700;SDS011;58809;47.984;7.964;2022-07-18T13:05:30;5.05;;;4.30;;
43700;SDS011;58809;47.984;7.964;2022-07-18T13:08:32;6.00;;;4.38;;
43700;SDS011;58809;47.984;7.964;2022-07-18T13:11:33;5.85;;;4.65;;
43700;SDS011;58809;47.984;7.964;2022-07-18T13:14:35;5.47;;;4.60;;
43700;SDS011;58809;47.984;7.964;2022-07-18T13:17:37;5.80;;;4.15;;
43700;SDS011;58809;47.984;7.964;2022-07-18T13:20:40;4.32;;;3.92;;
43700;SDS011;58809;47.984;7.964;2022-07-18T13:23:45;5.47;;;4.53;;
43700;SDS011;58809;47.984;7.964;2022-07-18T13:26:57;6.60;;;4.50;;
43700;SDS011;58809;47.984;7.964;2022-07-18T13:29:58;6.55;;;4.72;;
43700;SDS011;58809;47.984;7.964;2022-07-18T13:33:03;7.97;;;4.50;;
43700;SDS011;58809;47.984;7.964;2022-07-18T13:36:05;6.03;;;4.30;;
43700;SDS011;58809;47.984;7.964;2022-07-18T13:39:07;6.28;;;4.82;;
43700;SDS011;58809;47.984;7.964;2022-07-18T13:42:08;6.40;;;4.38;;
43700;SDS011;58809;47.984;7.964;2022-07-18T13:45:10;6.60;;;4.50;;
43700;SDS011;58809;47.984;7.964;2022-07-18T13:48:14;6.45;;;4.53;;
43700;SDS011;58809;47.984;7.964;2022-07-18T13:51:16;5.63;;;4.90;;
43700;SDS011;58809;47.984;7.964;2022-07-18T13:54:18;5.68;;;4.85;;
43700;SDS011;58809;47.984;7.964;2022-07-18T13:57:20;4.53;;;4.13;;
43700;SDS011;58809;47.984;7.964;2022-07-18T14:00:22;7.97;;;4.78;;
43700;SDS011;58809;47.984;7.964;2022-07-18T14:03:24;5.35;;;4.45;;
43700;SDS011;58809;47.984;7.964;2022-07-18T14:06:26;7.35;;;4.47;;
43700;SDS011;58809;47.984;7.964;2022-07-18T14:09:27;5.20;;;4.70;;
43700;SDS011;58809;47.984;7.964;2022-07-18T14:12:29;6.20;;;4.63;;
43700;SDS011;58809;47.984;7.964;2022-07-18T14:15:31;4.53;;;4.13;;
43700;SDS011;58809;47.984;7.964;2022-07-18T14:18:32;7.47;;;4.60;;
43700;SDS011;58809;47.984;7.964;2022-07-18T14:21:34;5.82;;;4.68;;
43700;SDS011;58809;47.984;7.964;2022-07-18T14:24:35;6.28;;;4.88;;
43700;SDS011;58809;47.984;7.964;2022-07-18T14:27:37;5.55;;;4.47;;
43700;SDS011;58809;47.984;7.964;2022-07-18T14:30:38;5.38;;;4.40;;
43700;SDS011;58809;47.984;7.964;2022-07-18T14:33:40;4.80;;;4.30;;
43700;SDS011;58809;47.984;7.964;2022-07-18T14:36:42;6.50;;;4.95;;
43700;SDS011;58809;47.984;7.964;2022-07-18T14:39:43;8.38;;;4.32;;
43700;SDS011;58809;47.984;7.964;2022-07-18T14:42:45;6.70;;;4.60;;
43700;SDS011;58809;47.984;7.964;2022-07-18T14:45:46;5.47;;;4.40;;
43700;SDS011;58809;47.984;7.964;2022-07-18T14:49:03;7.22;;;4.63;;
43700;SDS011;58809;47.984;7.964;2022-07-18T14:52:04;5.70;;;4.40;;
43700;SDS011;58809;47.984;7.964;2022-07-18T14:55:06;6.20;;;4.40;;
43700;SDS011;58809;47.984;7.964;2022-07-18T14:58:09;7.10;;;4.50;;
43700;SDS011;58809;47.984;7.964;2022-07-18T15:01:10;6.57;;;4.70;;
43700;SDS011;58809;47.984;7.964;2022-07-18T15:04:12;5.53;;;4.28;;
43700;SDS011;58809;47.984;7.964;2022-07-18T15:07:18;5.53;;;4.63;;
43700;SDS011;58809;47.984;7.964;2022-07-18T15:10:20;5.45;;;4.75;;
43700;SDS011;58809;47.984;7.964;2022-07-18T15:13:22;5.15;;;4.65;;
43700;SDS011;58809;47.984;7.964;2022-07-18T15:16:23;7.15;;;4.53;;
43700;SDS011;58809;47.984;7.964;2022-07-18T15:19:25;7.72;;;4.80;;
43700;SDS011;58809;47.984;7.964;2022-07-18T15:22:27;5.68;;;4.47;;
43700;SDS011;58809;47.984;7.964;2022-07-18T15:25:28;8.75;;;4.88;;
43700;SDS011;58809;47.984;7.964;2022-07-18T15:28:30;8.35;;;5.30;;
43700;SDS011;58809;47.984;7.964;2022-07-18T15:31:31;5.78;;;5.18;;
43700;SDS011;58809;47.984;7.964;2022-07-18T15:34:34;7.30;;;5.75;;
43700;SDS011;58809;47.984;7.964;2022-07-18T15:37:39;9.10;;;6.50;;
43700;SDS011;58809;47.984;7.964;2022-07-18T15:40:41;8.45;;;6.80;;
43700;SDS011;58809;47.984;7.964;2022-07-18T15:43:44;7.63;;;6.53;;
43700;SDS011;58809;47.984;7.964;2022-07-18T15:46:45;10.93;;;7.53;;
43700;SDS011;58809;47.984;7.964;2022-07-18T15:49:47;8.18;;;7.32;;
43700;SDS011;58809;47.984;7.964;2022-07-18T15:52:55;10.65;;;7.43;;
43700;SDS011;58809;47.984;7.964;2022-07-18T15:55:57;7.88;;;7.05;;
43700;SDS011;58809;47.984;7.964;2022-07-18T15:58:59;11.15;;;7.50;;
43700;SDS011;58809;47.984;7.964;2022-07-18T16:02:00;10.02;;;7.82;;
43700;SDS011;58809;47.984;7.964;2022-07-18T16:05:02;12.25;;;8.55;;
43700;SDS011;58809;47.984;7.964;2022-07-18T16:08:04;10.43;;;8.77;;
43700;SDS011;58809;47.984;7.964;2022-07-18T16:11:06;11.20;;;8.40;;
43700;SDS011;58809;47.984;7.964;2022-07-18T16:14:08;10.57;;;7.80;;
43700;SDS011;58809;47.984;7.964;2022-07-18T16:17:11;11.38;;;8.15;;
43700;SDS011;58809;47.984;7.964;2022-07-18T16:20:13;14.57;;;8.82;;
43700;SDS011;58809;47.984;7.964;2022-07-18T16:23:16;9.68;;;7.88;;
43700;SDS011;58809;47.984;7.964;2022-07-18T16:26:17;11.23;;;8.27;;
43700;SDS011;58809;47.984;7.964;2022-07-18T16:29:19;12.55;;;8.90;;
43700;SDS011;58809;47.984;7.964;2022-07-18T16:32:20;8.65;;;7.63;;
43700;SDS011;58809;47.984;7.964;2022-07-18T16:35:22;10.85;;;7.93;;
43700;SDS011;58809;47.984;7.964;2022-07-18T16:38:23;11.43;;;7.35;;
43700;SDS011;58809;47.984;7.964;2022-07-18T16:41:25;7.80;;;6.90;;
43700;SDS011;58809;47.984;7.964;2022-07-18T16:44:27;7.68;;;6.75;;
43700;SDS011;58809;47.984;7.964;2022-07-18T16:47:29;9.20;;;6.15;;
43700;SDS011;58809;47.984;7.964;2022-07-18T16:50:31;8.77;;;6.22;;
43700;SDS011;58809;47.984;7.964;2022-07-18T16:53:33;8.93;;;6.57;;
43700;SDS011;58809;47.984;7.964;2022-07-18T16:56:37;8.73;;;6.65;;
43700;SDS011;58809;47.984;7.964;2022-07-18T16:59:39;7.53;;;5.93;;
43700;SDS011;58809;47.984;7.964;2022-07-18T17:02:42;8.10;;;6.07;;
43700;SDS011;58809;47.984;7.964;2022-07-18T17:05:43;7.82;;;5.80;;
43700;SDS011;58809;47.984;7.964;2022-07-18T17:08:45;7.75;;;5.80;;
43700;SDS011;58809;47.984;7.964;2022-07-18T17:11:47;6.80;;;5.90;;
43700;SDS011;58809;47.984;7.964;2022-07-18T17:14:50;6.13;;;5.20;;
43700;SDS011;58809;47.984;7.964;2022-07-18T17:17:55;8.82;;;5.80;;
43700;SDS011;58809;47.984;7.964;2022-07-18T17:21:03;8.13;;;5.20;;
43700;SDS011;58809;47.984;7.964;2022-07-18T17:24:05;6.35;;;5.60;;
43700;SDS011;58809;47.984;7.964;2022-07-18T17:27:08;6.20;;;5.53;;
43700;SDS011;58809;47.984;7.964;2022-07-18T17:30:10;6.35;;;5.18;;
43700;SDS011;58809;47.984;7.964;2022-07-18T17:33:12;5.70;;;5.18;;
43700;SDS011;58809;47.984;7.964;2022-07-18T17:36:33;9.48;;;5.50;;
43700;SDS011;58809;47.984;7.964;2022-07-18T17:39:39;6.10;;;5.28;;
43700;SDS011;58809;47.984;7.964;2022-07-18T17:42:41;6.10;;;4.93;;
43700;SDS011;58809;47.984;7.964;2022-07-18T17:45:43;8.38;;;4.95;;
43700;SDS011;58809;47.984;7.964;2022-07-18T17:51:46;5.15;;;4.65;;
43700;SDS011;58809;47.984;7.964;2022-07-18T17:54:48;6.00;;;4.78;;
43700;SDS011;58809;47.984;7.964;2022-07-18T17:57:50;6.18;;;4.57;;
43700;SDS011;58809;47.984;7.964;2022-07-18T18:00:51;7.43;;;5.13;;
43700;SDS011;58809;47.984;7.964;2022-07-18T18:03:59;6.43;;;4.95;;
43700;SDS011;58809;47.984;7.964;2022-07-18T18:07:03;8.25;;;4.88;;
43700;SDS011;58809;47.984;7.964;2022-07-18T18:10:06;7.72;;;5.35;;
43700;SDS011;58809;47.984;7.964;2022-07-18T18:13:09;9.68;;;5.72;;
43700;SDS011;58809;47.984;7.964;2022-07-18T18:16:10;5.45;;;4.90;;
43700;SDS011;58809;47.984;7.964;2022-07-18T18:19:12;5.25;;;4.65;;
43700;SDS011;58809;47.984;7.964;2022-07-18T18:25:41;6.22;;;4.80;;
43700;SDS011;58809;47.984;7.964;2022-07-18T18:28:42;7.10;;;4.65;;
43700;SDS011;58809;47.984;7.964;2022-07-18T18:31:44;6.40;;;4.72;;
43700;SDS011;58809;47.984;7.964;2022-07-18T18:37:48;6.28;;;4.28;;
43700;SDS011;58809;47.984;7.964;2022-07-18T18:40:52;7.60;;;4.75;;
43700;SDS011;58809;47.984;7.964;2022-07-18T18:43:54;5.50;;;4.90;;
43700;SDS011;58809;47.984;7.964;2022-07-18T18:46:55;5.45;;;4.93;;
43700;SDS011;58809;47.984;7.964;2022-07-18T18:49:57;9.73;;;6.05;;
43700;SDS011;58809;47.984;7.964;2022-07-18T18:52:58;7.88;;;5.68;;
43700;SDS011;58809;47.984;7.964;2022-07-18T18:56:00;8.90;;;6.05;;
43700;SDS011;58809;47.984;7.964;2022-07-18T18:59:02;11.60;;;7.05;;
43700;SDS011;58809;47.984;7.964;2022-07-18T19:02:04;13.57;;;7.00;;
43700;SDS011;58809;47.984;7.964;2022-07-18T19:05:06;6.78;;;6.13;;
43700;SDS011;58809;47.984;7.964;2022-07-18T19:08:07;9.00;;;5.82;;